sensor_id;sensor_type;location;lat;lon;timestamp;P1;durP1;ratioP1;P2;durP2;ratioP2
12232;SDS011;6179;51.748;8.728;2023-05-20T00:03:13;5.30;;;0.70;;
12232;SDS011;6179;51.748;8.728;2023-05-20T00:09:14;0.97;;;0.50;;
12232;SDS011;6179;51.748;8.728;2023-05-20T00:15:16;0.60;;;0.50;;
12232;SDS011;6179;51.748;8.728;2023-05-20T00:21:16;1.57;;;0.70;;
12232;SDS011;6179;51.748;8.728;2023-05-20T00:27:17;0.90;;;0.70;;
12232;SDS011;6179;51.748;8.728;2023-05-20T00:33:18;2.10;;;0.80;;
12232;SDS011;6179;51.748;8.728;2023-05-20T00:39:18;2.83;;;0.70;;
12232;SDS011;6179;51.748;8.728;2023-05-20T00:45:19;3.00;;;0.87;;
12232;SDS011;6179;51.748;8.728;2023-05-20T00:51:19;0.80;;;0.80;;
12232;SDS011;6179;51.748;8.728;2023-05-20T00:57:21;3.90;;;1.17;;
12232;SDS011;6179;51.748;8.728;2023-05-20T01:03:21;3.60;;;1.03;;
12232;SDS011;6179;51.748;8.728;2023-05-20T01:09:22;1.27;;;0.67;;
12232;SDS011;6179;51.748;8.728;2023-05-20T01:15:24;1.53;;;0.90;;
12232;SDS011;6179;51.748;8.728;2023-05-20T01:21:26;1.00;;;0.70;;
12232;SDS011;6179;51.748;8.728;2023-05-20T01:27:30;0.87;;;0.83;;
12232;SDS011;6179;51.748;8.728;2023-05-20T01:33:30;0.80;;;0.57;;
12232;SDS011;6179;51.748;8.728;2023-05-20T01:39:35;2.63;;;0.87;;
12232;SDS011;6179;51.748;8.728;2023-05-20T01:45:39;0.60;;;0.60;;
12232;SDS011;6179;51.748;8.728;2023-05-20T01:51:41;1.43;;;0.60;;
12232;SDS011;6179;51.748;8.728;2023-05-20T01:57:41;2.23;;;1.00;;
12232;SDS011;6179;51.748;8.728;2023-05-20T02:03:42;3.00;;;0.70;;
12232;SDS011;6179;51.748;8.728;2023-05-20T02:09:43;2.03;;;0.77;;
12232;SDS011;6179;51.748;8.728;2023-05-20T02:15:43;1.13;;;0.50;;
12232;SDS011;6179;51.748;8.728;2023-05-20T02:21:44;0.77;;;0.70;;
12232;SDS011;6179;51.748;8.728;2023-05-20T02:27:47;4.33;;;0.90;;
12232;SDS011;6179;51.748;8.728;2023-05-20T02:33:48;0.70;;;0.70;;
12232;SDS011;6179;51.748;8.728;2023-05-20T02:39:49;0.50;;;0.50;;
12232;SDS011;6179;51.748;8.728;2023-05-20T02:45:49;3.73;;;1.23;;
12232;SDS011;6179;51.748;8.728;2023-05-20T02:51:50;2.30;;;0.93;;
12232;SDS011;6179;51.748;8.728;2023-05-20T02:57:51;0.90;;;0.90;;
12232;SDS011;6179;51.748;8.728;2023-05-20T03:03:51;0.90;;;0.63;;
12232;SDS011;6179;51.748;8.728;2023-05-20T03:09:52;0.70;;;0.70;;
12232;SDS011;6179;51.748;8.728;2023-05-20T03:15:53;1.83;;;0.70;;
12232;SDS011;6179;51.748;8.728;2023-05-20T03:21:53;1.10;;;0.70;;
12232;SDS011;6179;51.748;8.728;2023-05-20T03:27:54;2.07;;;1.10;;
12232;SDS011;6179;51.748;8.728;2023-05-20T03:33:57;1.90;;;1.17;;
12232;SDS011;6179;51.748;8.728;2023-05-20T03:39:57;5.60;;;1.10;;
12232;SDS011;6179;51.748;8.728;2023-05-20T03:45:58;1.60;;;1.00;;
12232;SDS011;6179;51.748;8.728;2023-05-20T03:51:59;1.67;;;1.10;;
12232;SDS011;6179;51.748;8.728;2023-05-20T03:58:00;0.70;;;0.50;;
12232;SDS011;6179;51.748;8.728;2023-05-20T04:04:01;2.20;;;1.60;;
12232;SDS011;6179;51.748;8.728;2023-05-20T04:10:02;4.77;;;0.67;;
12232;SDS011;6179;51.748;8.728;2023-05-20T04:16:03;1.80;;;1.23;;
12232;SDS011;6179;51.748;8.728;2023-05-20T04:22:04;3.93;;;1.20;;
12232;SDS011;6179;51.748;8.728;2023-05-20T04:28:05;3.30;;;1.17;;
12232;SDS011;6179;51.748;8.728;2023-05-20T04:34:05;1.40;;;0.97;;
12232;SDS011;6179;51.748;8.728;2023-05-20T04:40:06;1.10;;;1.00;;
12232;SDS011;6179;51.748;8.728;2023-05-20T04:46:08;2.93;;;2.07;;
12232;SDS011;6179;51.748;8.728;2023-05-20T04:52:08;12.70;;;2.23;;
12232;SDS011;6179;51.748;8.728;2023-05-20T04:58:09;3.50;;;2.00;;
12232;SDS011;6179;51.748;8.728;2023-05-20T05:04:14;3.63;;;2.07;;
12232;SDS011;6179;51.748;8.728;2023-05-20T05:10:14;4.63;;;2.70;;
12232;SDS011;6179;51.748;8.728;2023-05-20T05:16:15;2.93;;;1.80;;
12232;SDS011;6179;51.748;8.728;2023-05-20T05:22:16;2.67;;;1.77;;
12232;SDS011;6179;51.748;8.728;2023-05-20T05:28:16;3.60;;;3.03;;
12232;SDS011;6179;51.748;8.728;2023-05-20T05:34:17;2.87;;;2.17;;
12232;SDS011;6179;51.748;8.728;2023-05-20T05:40:17;2.73;;;2.10;;
12232;SDS011;6179;51.748;8.728;2023-05-20T05:46:18;7.00;;;1.80;;
12232;SDS011;6179;51.748;8.728;2023-05-20T05:52:19;2.73;;;1.43;;
12232;SDS011;6179;51.748;8.728;2023-05-20T05:58:19;5.87;;;3.37;;
12232;SDS011;6179;51.748;8.728;2023-05-20T06:04:20;12.53;;;2.27;;
12232;SDS011;6179;51.748;8.728;2023-05-20T06:10:21;8.00;;;2.87;;
12232;SDS011;6179;51.748;8.728;2023-05-20T06:16:21;4.43;;;3.03;;
12232;SDS011;6179;51.748;8.728;2023-05-20T06:22:22;3.83;;;2.70;;
12232;SDS011;6179;51.748;8.728;2023-05-20T06:28:24;6.20;;;3.20;;
12232;SDS011;6179;51.748;8.728;2023-05-20T06:34:26;12.90;;;2.70;;
12232;SDS011;6179;51.748;8.728;2023-05-20T06:40:26;7.20;;;2.70;;
12232;SDS011;6179;51.748;8.728;2023-05-20T06:46:27;6.17;;;2.43;;
12232;SDS011;6179;51.748;8.728;2023-05-20T06:52:28;4.20;;;2.27;;
12232;SDS011;6179;51.748;8.728;2023-05-20T06:58:29;4.30;;;2.30;;
12232;SDS011;6179;51.748;8.728;2023-05-20T07:04:29;2.37;;;2.07;;
12232;SDS011;6179;51.748;8.728;2023-05-20T07:10:30;8.63;;;1.87;;
12232;SDS011;6179;51.748;8.728;2023-05-20T07:16:30;6.97;;;2.80;;
12232;SDS011;6179;51.748;8.728;2023-05-20T07:22:33;10.13;;;3.80;;
12232;SDS011;6179;51.748;8.728;2023-05-20T07:28:34;2.90;;;2.47;;
12232;SDS011;6179;51.748;8.728;2023-05-20T07:34:35;4.07;;;2.00;;
12232;SDS011;6179;51.748;8.728;2023-05-20T07:40:36;7.23;;;2.90;;
12232;SDS011;6179;51.748;8.728;2023-05-20T07:46:39;3.93;;;2.37;;
12232;SDS011;6179;51.748;8.728;2023-05-20T07:52:40;2.90;;;1.93;;
12232;SDS011;6179;51.748;8.728;2023-05-20T07:58:41;2.40;;;2.20;;
12232;SDS011;6179;51.748;8.728;2023-05-20T08:04:42;10.63;;;2.97;;
12232;SDS011;6179;51.748;8.728;2023-05-20T08:10:42;4.83;;;3.37;;
12232;SDS011;6179;51.748;8.728;2023-05-20T08:16:43;4.30;;;2.23;;
12232;SDS011;6179;51.748;8.728;2023-05-20T08:22:43;3.47;;;1.83;;
12232;SDS011;6179;51.748;8.728;2023-05-20T08:28:44;3.57;;;2.57;;
12232;SDS011;6179;51.748;8.728;2023-05-20T08:34:45;5.33;;;2.37;;
12232;SDS011;6179;51.748;8.728;2023-05-20T08:40:57;6.77;;;1.80;;
12232;SDS011;6179;51.748;8.728;2023-05-20T08:46:57;5.60;;;2.50;;
12232;SDS011;6179;51.748;8.728;2023-05-20T08:52:58;5.77;;;2.57;;
12232;SDS011;6179;51.748;8.728;2023-05-20T08:58:59;2.40;;;1.90;;
12232;SDS011;6179;51.748;8.728;2023-05-20T09:04:59;3.23;;;1.67;;
12232;SDS011;6179;51.748;8.728;2023-05-20T09:11:00;2.67;;;1.70;;
12232;SDS011;6179;51.748;8.728;2023-05-20T09:17:04;1.60;;;1.00;;
12232;SDS011;6179;51.748;8.728;2023-05-20T09:23:08;1.97;;;1.10;;
12232;SDS011;6179;51.748;8.728;2023-05-20T09:29:09;1.37;;;1.00;;
12232;SDS011;6179;51.748;8.728;2023-05-20T09:35:12;6.00;;;2.37;;
12232;SDS011;6179;51.748;8.728;2023-05-20T09:41:13;2.03;;;1.40;;
12232;SDS011;6179;51.748;8.728;2023-05-20T09:47:14;2.80;;;1.90;;
12232;SDS011;6179;51.748;8.728;2023-05-20T09:53:16;6.33;;;1.97;;
12232;SDS011;6179;51.748;8.728;2023-05-20T09:59:17;3.67;;;2.03;;
12232;SDS011;6179;51.748;8.728;2023-05-20T10:05:25;3.00;;;2.00;;
12232;SDS011;6179;51.748;8.728;2023-05-20T10:24:15;2.60;;;1.40;;
12232;SDS011;6179;51.748;8.728;2023-05-20T10:30:20;3.47;;;1.30;;
12232;SDS011;6179;51.748;8.728;2023-05-20T10:36:30;1.30;;;1.20;;
12232;SDS011;6179;51.748;8.728;2023-05-20T10:42:32;1.77;;;0.70;;
12232;SDS011;6179;51.748;8.728;2023-05-20T10:48:33;2.50;;;1.60;;
12232;SDS011;6179;51.748;8.728;2023-05-20T10:54:43;2.40;;;1.33;;
12232;SDS011;6179;51.748;8.728;2023-05-20T11:01:03;2.60;;;1.30;;
12232;SDS011;6179;51.748;8.728;2023-05-20T11:07:04;2.93;;;1.50;;
12232;SDS011;6179;51.748;8.728;2023-05-20T11:13:05;1.60;;;1.30;;
12232;SDS011;6179;51.748;8.728;2023-05-20T11:19:07;1.83;;;1.67;;
12232;SDS011;6179;51.748;8.728;2023-05-20T11:25:13;1.53;;;1.27;;
12232;SDS011;6179;51.748;8.728;2023-05-20T11:31:14;1.83;;;0.90;;
12232;SDS011;6179;51.748;8.728;2023-05-20T11:37:15;1.53;;;1.00;;
12232;SDS011;6179;51.748;8.728;2023-05-20T11:43:19;2.40;;;1.20;;
12232;SDS011;6179;51.748;8.728;2023-05-20T11:49:20;2.60;;;1.20;;
12232;SDS011;6179;51.748;8.728;2023-05-20T11:55:21;2.00;;;1.40;;
12232;SDS011;6179;51.748;8.728;2023-05-20T12:01:21;1.60;;;1.43;;
12232;SDS011;6179;51.748;8.728;2023-05-20T12:07:22;8.00;;;2.27;;
12232;SDS011;6179;51.748;8.728;2023-05-20T12:13:22;5.77;;;2.13;;
12232;SDS011;6179;51.748;8.728;2023-05-20T12:19:23;3.10;;;2.10;;
12232;SDS011;6179;51.748;8.728;2023-05-20T12:25:24;4.97;;;1.87;;
12232;SDS011;6179;51.748;8.728;2023-05-20T12:31:25;2.33;;;1.20;;
12232;SDS011;6179;51.748;8.728;2023-05-20T12:37:25;3.23;;;1.63;;
12232;SDS011;6179;51.748;8.728;2023-05-20T12:43:26;1.30;;;1.20;;
12232;SDS011;6179;51.748;8.728;2023-05-20T12:49:27;2.30;;;1.90;;
12232;SDS011;6179;51.748;8.728;2023-05-20T12:55:28;1.60;;;1.10;;
12232;SDS011;6179;51.748;8.728;2023-05-20T13:01:29;1.20;;;0.80;;
12232;SDS011;6179;51.748;8.728;2023-05-20T13:07:29;2.90;;;1.73;;
12232;SDS011;6179;51.748;8.728;2023-05-20T13:13:31;1.93;;;1.13;;
12232;SDS011;6179;51.748;8.728;2023-05-20T13:19:32;1.47;;;1.20;;
12232;SDS011;6179;51.748;8.728;2023-05-20T13:25:33;1.67;;;1.57;;
12232;SDS011;6179;51.748;8.728;2023-05-20T13:31:35;1.77;;;1.47;;
12232;SDS011;6179;51.748;8.728;2023-05-20T13:37:36;3.37;;;2.10;;
12232;SDS011;6179;51.748;8.728;2023-05-20T13:43:37;3.30;;;1.80;;
12232;SDS011;6179;51.748;8.728;2023-05-20T13:49:41;2.50;;;2.17;;
12232;SDS011;6179;51.748;8.728;2023-05-20T13:55:41;2.17;;;1.90;;
12232;SDS011;6179;51.748;8.728;2023-05-20T14:01:42;4.03;;;2.20;;
12232;SDS011;6179;51.748;8.728;2023-05-20T14:07:44;3.10;;;2.10;;
12232;SDS011;6179;51.748;8.728;2023-05-20T14:13:44;2.10;;;2.00;;
12232;SDS011;6179;51.748;8.728;2023-05-20T14:19:45;3.50;;;2.50;;
12232;SDS011;6179;51.748;8.728;2023-05-20T14:25:46;2.03;;;1.83;;
12232;SDS011;6179;51.748;8.728;2023-05-20T14:31:46;3.53;;;3.27;;
12232;SDS011;6179;51.748;8.728;2023-05-20T14:37:47;4.20;;;2.10;;
12232;SDS011;6179;51.748;8.728;2023-05-20T14:43:47;3.80;;;2.80;;
12232;SDS011;6179;51.748;8.728;2023-05-20T14:49:48;6.10;;;3.30;;
12232;SDS011;6179;51.748;8.728;2023-05-20T14:55:49;4.03;;;2.70;;
12232;SDS011;6179;51.748;8.728;2023-05-20T15:01:49;5.43;;;3.60;;
12232;SDS011;6179;51.748;8.728;2023-05-20T15:07:50;5.47;;;3.07;;
12232;SDS011;6179;51.748;8.728;2023-05-20T15:13:51;5.60;;;3.47;;
12232;SDS011;6179;51.748;8.728;2023-05-20T15:19:51;8.83;;;3.83;;
12232;SDS011;6179;51.748;8.728;2023-05-20T15:25:52;14.20;;;4.20;;
12232;SDS011;6179;51.748;8.728;2023-05-20T15:31:53;5.70;;;4.17;;
12232;SDS011;6179;51.748;8.728;2023-05-20T15:37:53;6.53;;;4.40;;
12232;SDS011;6179;51.748;8.728;2023-05-20T15:43:54;6.37;;;3.53;;
12232;SDS011;6179;51.748;8.728;2023-05-20T15:49:54;11.80;;;3.37;;
12232;SDS011;6179;51.748;8.728;2023-05-20T15:55:56;6.23;;;3.80;;
12232;SDS011;6179;51.748;8.728;2023-05-20T16:01:57;23.07;;;4.13;;
12232;SDS011;6179;51.748;8.728;2023-05-20T16:07:57;6.07;;;3.00;;
12232;SDS011;6179;51.748;8.728;2023-05-20T16:13:58;7.03;;;3.33;;
12232;SDS011;6179;51.748;8.728;2023-05-20T16:19:59;5.37;;;3.50;;
12232;SDS011;6179;51.748;8.728;2023-05-20T16:25:59;5.97;;;3.00;;
12232;SDS011;6179;51.748;8.728;2023-05-20T16:32:00;6.27;;;3.30;;
12232;SDS011;6179;51.748;8.728;2023-05-20T16:38:01;8.27;;;3.90;;
12232;SDS011;6179;51.748;8.728;2023-05-20T16:44:01;5.17;;;2.80;;
12232;SDS011;6179;51.748;8.728;2023-05-20T16:50:02;5.20;;;3.00;;
12232;SDS011;6179;51.748;8.728;2023-05-20T16:56:06;11.33;;;4.40;;
12232;SDS011;6179;51.748;8.728;2023-05-20T17:02:07;9.40;;;3.17;;
12232;SDS011;6179;51.748;8.728;2023-05-20T17:08:08;6.83;;;3.77;;
12232;SDS011;6179;51.748;8.728;2023-05-20T17:14:08;9.30;;;5.70;;
12232;SDS011;6179;51.748;8.728;2023-05-20T17:20:09;9.80;;;3.70;;
12232;SDS011;6179;51.748;8.728;2023-05-20T17:26:10;5.83;;;3.10;;
12232;SDS011;6179;51.748;8.728;2023-05-20T17:32:11;7.50;;;3.90;;
12232;SDS011;6179;51.748;8.728;2023-05-20T17:38:11;13.40;;;3.83;;
12232;SDS011;6179;51.748;8.728;2023-05-20T17:44:12;6.60;;;3.30;;
12232;SDS011;6179;51.748;8.728;2023-05-20T17:50:12;10.90;;;4.13;;
12232;SDS011;6179;51.748;8.728;2023-05-20T17:56:14;7.60;;;3.47;;
12232;SDS011;6179;51.748;8.728;2023-05-20T18:02:15;9.03;;;3.67;;
12232;SDS011;6179;51.748;8.728;2023-05-20T18:08:15;6.90;;;3.10;;
12232;SDS011;6179;51.748;8.728;2023-05-20T18:14:18;10.40;;;4.13;;
12232;SDS011;6179;51.748;8.728;2023-05-20T18:20:21;6.33;;;2.97;;
12232;SDS011;6179;51.748;8.728;2023-05-20T18:26:22;4.90;;;3.80;;
12232;SDS011;6179;51.748;8.728;2023-05-20T18:32:23;7.33;;;3.70;;
12232;SDS011;6179;51.748;8.728;2023-05-20T18:38:27;4.40;;;3.23;;
12232;SDS011;6179;51.748;8.728;2023-05-20T18:44:28;4.80;;;3.53;;
12232;SDS011;6179;51.748;8.728;2023-05-20T18:50:28;7.93;;;3.07;;
12232;SDS011;6179;51.748;8.728;2023-05-20T18:56:29;6.57;;;3.53;;
12232;SDS011;6179;51.748;8.728;2023-05-20T19:02:31;8.37;;;2.97;;
12232;SDS011;6179;51.748;8.728;2023-05-20T19:08:32;4.43;;;3.50;;
12232;SDS011;6179;51.748;8.728;2023-05-20T19:14:32;6.73;;;3.20;;
12232;SDS011;6179;51.748;8.728;2023-05-20T19:20:33;6.37;;;3.27;;
12232;SDS011;6179;51.748;8.728;2023-05-20T19:26:34;5.97;;;3.40;;
12232;SDS011;6179;51.748;8.728;2023-05-20T19:32:34;6.33;;;3.13;;
12232;SDS011;6179;51.748;8.728;2023-05-20T19:38:35;7.60;;;2.93;;
12232;SDS011;6179;51.748;8.728;2023-05-20T19:44:36;3.50;;;2.13;;
12232;SDS011;6179;51.748;8.728;2023-05-20T19:50:36;4.13;;;2.90;;
12232;SDS011;6179;51.748;8.728;2023-05-20T19:56:37;9.87;;;3.40;;
12232;SDS011;6179;51.748;8.728;2023-05-20T20:02:38;6.40;;;3.67;;
12232;SDS011;6179;51.748;8.728;2023-05-20T20:08:39;6.27;;;2.33;;
12232;SDS011;6179;51.748;8.728;2023-05-20T20:14:40;3.00;;;2.77;;
12232;SDS011;6179;51.748;8.728;2023-05-20T20:20:41;6.10;;;4.97;;
12232;SDS011;6179;51.748;8.728;2023-05-20T20:26:41;4.90;;;3.60;;
12232;SDS011;6179;51.748;8.728;2023-05-20T20:32:42;6.20;;;3.40;;
12232;SDS011;6179;51.748;8.728;2023-05-20T20:38:43;3.20;;;2.50;;
12232;SDS011;6179;51.748;8.728;2023-05-20T20:44:45;3.20;;;2.70;;
12232;SDS011;6179;51.748;8.728;2023-05-20T20:50:47;4.63;;;2.77;;
12232;SDS011;6179;51.748;8.728;2023-05-20T20:56:47;6.63;;;2.80;;
12232;SDS011;6179;51.748;8.728;2023-05-20T21:02:49;2.60;;;1.90;;
12232;SDS011;6179;51.748;8.728;2023-05-20T21:08:49;4.90;;;2.27;;
12232;SDS011;6179;51.748;8.728;2023-05-20T21:14:52;4.27;;;2.03;;
12232;SDS011;6179;51.748;8.728;2023-05-20T21:20:53;2.57;;;1.70;;
12232;SDS011;6179;51.748;8.728;2023-05-20T21:26:54;4.47;;;2.57;;
12232;SDS011;6179;51.748;8.728;2023-05-20T21:32:55;4.57;;;2.70;;
12232;SDS011;6179;51.748;8.728;2023-05-20T21:38:56;7.40;;;3.60;;
12232;SDS011;6179;51.748;8.728;2023-05-20T21:44:56;5.67;;;2.67;;
12232;SDS011;6179;51.748;8.728;2023-05-20T21:50:57;5.47;;;3.00;;
12232;SDS011;6179;51.748;8.728;2023-05-20T21:56:57;3.30;;;2.23;;
12232;SDS011;6179;51.748;8.728;2023-05-20T22:02:58;3.73;;;2.27;;
12232;SDS011;6179;51.748;8.728;2023-05-20T22:08:59;7.07;;;3.27;;
12232;SDS011;6179;51.748;8.728;2023-05-20T22:15:00;3.23;;;2.67;;
12232;SDS011;6179;51.748;8.728;2023-05-20T22:21:00;4.07;;;2.90;;
12232;SDS011;6179;51.748;8.728;2023-05-20T22:27:01;7.40;;;4.23;;
12232;SDS011;6179;51.748;8.728;2023-05-20T22:33:03;8.53;;;3.43;;
12232;SDS011;6179;51.748;8.728;2023-05-20T22:39:04;6.80;;;3.87;;
12232;SDS011;6179;51.748;8.728;2023-05-20T22:45:06;9.97;;;4.10;;
12232;SDS011;6179;51.748;8.728;2023-05-20T22:51:07;9.97;;;5.07;;
12232;SDS011;6179;51.748;8.728;2023-05-20T22:57:07;5.47;;;3.30;;
12232;SDS011;6179;51.748;8.728;2023-05-20T23:03:08;7.77;;;3.70;;
12232;SDS011;6179;51.748;8.728;2023-05-20T23:09:10;3.87;;;2.40;;
12232;SDS011;6179;51.748;8.728;2023-05-20T23:15:11;6.33;;;4.00;;
12232;SDS011;6179;51.748;8.728;2023-05-20T23:21:12;3.43;;;2.87;;
12232;SDS011;6179;51.748;8.728;2023-05-20T23:27:13;5.27;;;3.43;;
12232;SDS011;6179;51.748;8.728;2023-05-20T23:33:14;3.70;;;2.63;;
12232;SDS011;6179;51.748;8.728;2023-05-20T23:39:16;3.60;;;3.23;;
12232;SDS011;6179;51.748;8.728;2023-05-20T23:45:16;6.20;;;3.40;;
12232;SDS011;6179;51.748;8.728;2023-05-20T23:51:17;6.30;;;3.50;;
12232;SDS011;6179;51.748;8.728;2023-05-20T23:57:18;9.10;;;5.20;;
